Terminal Aerodrome Forecast
Issued by NWS

Home | Current Version | Previous Version | Text Only | Print | Product List | Glossary On
Versions: 1 2 3 4 5 6 7 8 9 10 11 12 13 14 15 16 17 18 19 20 21 22 23 24 25 26 27 28
000
FTUS43 KDLH 280800 AAB
TAFHIB
TAF AMD
KHIB 280822Z 2808/2906 16007KT P6SM OVC009
     FM281300 15005KT P6SM OVC008
     FM281800 15004KT 6SM BR OVC006
     FM290100 VRB03KT 5SM BR VCSH OVC006
     FM290500 32008KT 6SM BR VCSH OVC007=

USA.gov is the U.S. government's official web portal to all federal, state and local government web resources and services.